Time;durP1;ratioP1;P1;durP2;ratioP2;P2;SDS_P1;SDS_P2;PMS_P1;PMS_P2;Temp;Humidity;BMP_temperature;BMP_pressure;BME280_temperature;BME280_humidity;BME280_pressure;Samples;Min_cycle;Max_cycle;Signal;HPM_P1;HPM_P2
2021/08/23 00:01:15;;;;;;;21.70;15.80;;;;;;;;;;5078318;28;20441;-47
2021/08/23 00:03:46;;;;;;;78.13;49.60;;;;;;;;;;5078206;28;20476;-56
2021/08/23 00:06:13;;;;;;;17.60;8.67;;;;;;;;;;5088570;28;20484;-53
2021/08/23 00:08:40;;;;;;;10.03;8.13;;;;;;;;;;5098144;28;20444;-51
2021/08/23 00:11:07;;;;;;;16.10;9.47;;;;;;;;;;5098033;28;20739;-58
2021/08/23 00:13:35;;;;;;;19.27;13.50;;;;;;;;;;5098649;28;20421;-58
2021/08/23 00:16:24;;;;;;;14.43;10.20;;;;;;;;;;5097379;28;20460;-55
2021/08/23 00:18:53;;;;;;;15.03;9.20;;;;;;;;;;5098146;28;20639;-50
2021/08/23 00:21:27;;;;;;;10.93;8.13;;;;;;;;;;5098310;28;20533;-53
2021/08/23 00:24:05;;;;;;;9.47;7.00;;;;;;;;;;5081885;28;20431;-57
2021/08/23 00:26:33;;;;;;;26.87;20.17;;;;;;;;;;5098207;28;20503;-54
2021/08/23 00:29:00;;;;;;;18.30;15.10;;;;;;;;;;5098112;28;20447;-53
2021/08/23 00:31:31;;;;;;;22.63;18.87;;;;;;;;;;5097828;28;20432;-55
2021/08/23 00:37:04;;;;;;;19.03;7.90;;;;;;;;;;5095776;28;20494;-57
2021/08/23 00:39:32;;;;;;;15.50;13.83;;;;;;;;;;5097954;28;20436;-54
2021/08/23 00:42:36;;;;;;;14.40;11.27;;;;;;;;;;5097725;28;20447;-53
2021/08/23 00:45:04;;;;;;;13.20;10.00;;;;;;;;;;5097712;28;20448;-55
2021/08/23 00:47:31;;;;;;;14.03;6.93;;;;;;;;;;5097825;28;20436;-55
2021/08/23 00:49:58;;;;;;;9.60;6.33;;;;;;;;;;5097760;28;20448;-47
2021/08/23 00:52:28;;;;;;;7.37;6.50;;;;;;;;;;5097452;28;20440;-56
2021/08/23 00:54:55;;;;;;;11.57;6.50;;;;;;;;;;5097864;28;20440;-55
2021/08/23 00:57:32;;;;;;;10.67;9.20;;;;;;;;;;5097474;28;20527;-50
2021/08/23 01:00:00;;;;;;;11.07;9.53;;;;;;;;;;5097474;28;20447;-53
2021/08/23 01:02:29;;;;;;;11.50;10.07;;;;;;;;;;5097631;28;20444;-53
2021/08/23 01:05:14;;;;;;;10.83;7.90;;;;;;;;;;5097291;28;20450;-55
2021/08/23 01:07:50;;;;;;;14.63;9.40;;;;;;;;;;5095334;28;20518;-58
2021/08/23 01:10:19;;;;;;;23.60;17.70;;;;;;;;;;5096966;28;20459;-49
2021/08/23 01:12:46;;;;;;;12.30;8.13;;;;;;;;;;5096854;28;20444;-51
2021/08/23 01:15:13;;;;;;;9.40;8.00;;;;;;;;;;5097328;28;20474;-48
2021/08/23 01:17:59;;;;;;;10.87;7.17;;;;;;;;;;5096918;28;20466;-56
2021/08/23 01:20:27;;;;;;;10.67;6.97;;;;;;;;;;5097192;28;20448;-47
2021/08/23 01:22:56;;;;;;;8.50;7.60;;;;;;;;;;5096940;28;20464;-50
2021/08/23 01:25:26;;;;;;;9.07;6.60;;;;;;;;;;5096834;28;20497;-56
2021/08/23 01:28:00;;;;;;;7.80;6.63;;;;;;;;;;5096540;28;20463;-50
2021/08/23 01:30:29;;;;;;;14.70;11.93;;;;;;;;;;5079470;28;20483;-50
2021/08/23 01:32:58;;;;;;;13.50;11.20;;;;;;;;;;5097271;28;20437;-49
2021/08/23 01:35:41;;;;;;;12.40;8.70;;;;;;;;;;5096922;28;20420;-52
2021/08/23 01:38:08;;;;;;;10.33;7.50;;;;;;;;;;5096844;28;20562;-47
2021/08/23 01:40:36;;;;;;;9.60;7.00;;;;;;;;;;5096847;28;20452;-56
2021/08/23 01:43:04;;;;;;;17.20;14.97;;;;;;;;;;5096930;28;20452;-51
2021/08/23 01:45:31;;;;;;;8.90;7.40;;;;;;;;;;5096390;28;20456;-55
2021/08/23 01:48:00;;;;;;;8.80;6.77;;;;;;;;;;5096671;28;20421;-49
2021/08/23 01:50:27;;;;;;;12.73;7.83;;;;;;;;;;5096602;28;20432;-47
2021/08/23 01:53:17;;;;;;;11.73;7.47;;;;;;;;;;5096713;28;20478;-48
2021/08/23 01:55:44;;;;;;;10.17;6.80;;;;;;;;;;5096521;28;20462;-55
2021/08/23 01:58:12;;;;;;;12.83;8.47;;;;;;;;;;5096522;28;20521;-52
2021/08/23 02:01:12;;;;;;;9.33;6.90;;;;;;;;;;5096453;28;20477;-52
2021/08/23 02:03:41;;;;;;;9.37;7.30;;;;;;;;;;5094562;28;20526;-55
2021/08/23 02:06:08;;;;;;;9.17;7.30;;;;;;;;;;5096279;28;20459;-49
2021/08/23 02:08:35;;;;;;;9.00;7.87;;;;;;;;;;5096627;28;20440;-55
2021/08/23 02:11:02;;;;;;;10.60;7.03;;;;;;;;;;5096523;28;20444;-51
2021/08/23 02:13:32;;;;;;;10.47;8.00;;;;;;;;;;5096744;28;20467;-50
2021/08/23 02:15:59;;;;;;;13.10;7.63;;;;;;;;;;5096620;28;20488;-52
2021/08/23 02:18:26;;;;;;;9.53;7.97;;;;;;;;;;5096657;28;20440;-60
2021/08/23 02:20:55;;;;;;;8.67;7.77;;;;;;;;;;5096621;28;20675;-53
2021/08/23 02:23:22;;;;;;;10.07;9.07;;;;;;;;;;5096832;28;20459;-53
2021/08/23 02:25:50;;;;;;;12.47;7.97;;;;;;;;;;5096190;28;20468;-58
2021/08/23 02:28:24;;;;;;;9.10;7.07;;;;;;;;;;5096820;28;20436;-52
2021/08/23 02:30:51;;;;;;;13.83;7.93;;;;;;;;;;5096429;28;20448;-59
2021/08/23 02:33:19;;;;;;;11.37;8.07;;;;;;;;;;5096490;28;20562;-54
2021/08/23 02:36:09;;;;;;;9.67;8.13;;;;;;;;;;5099524;28;20619;-55
2021/08/23 02:38:37;;;;;;;12.13;9.60;;;;;;;;;;5098625;28;20514;-53
2021/08/23 02:41:04;;;;;;;10.33;7.80;;;;;;;;;;5100056;28;20440;-55
2021/08/23 02:43:32;;;;;;;10.33;9.23;;;;;;;;;;5100171;28;20446;-58
2021/08/23 02:45:59;;;;;;;8.70;7.80;;;;;;;;;;5100275;28;20452;-55
2021/08/23 02:48:35;;;;;;;11.37;9.87;;;;;;;;;;5100149;28;20447;-50
2021/08/23 02:51:04;;;;;;;12.67;9.30;;;;;;;;;;5099657;28;20439;-53
2021/08/23 02:53:33;;;;;;;13.20;9.57;;;;;;;;;;5100410;28;20436;-50
2021/08/23 02:56:02;;;;;;;11.60;8.83;;;;;;;;;;5100163;28;20452;-52
2021/08/23 02:58:29;;;;;;;9.97;8.60;;;;;;;;;;5099720;28;20467;-57
2021/08/23 03:00:57;;;;;;;9.97;8.87;;;;;;;;;;5100312;28;20424;-50
2021/08/23 03:03:24;;;;;;;17.37;8.67;;;;;;;;;;5099870;28;20440;-58
2021/08/23 03:05:51;;;;;;;11.33;9.10;;;;;;;;;;5099618;28;20515;-53
2021/08/23 03:08:18;;;;;;;8.33;7.53;;;;;;;;;;5099765;28;20447;-54
2021/08/23 03:10:46;;;;;;;11.37;8.17;;;;;;;;;;5099494;28;20436;-52
2021/08/23 03:13:16;;;;;;;11.60;8.83;;;;;;;;;;5099720;28;20444;-51
2021/08/23 03:15:44;;;;;;;11.90;8.23;;;;;;;;;;5099782;28;20482;-51
2021/08/23 03:18:11;;;;;;;9.00;7.87;;;;;;;;;;5099639;28;20471;-50
2021/08/23 03:20:40;;;;;;;9.93;8.50;;;;;;;;;;5099567;28;20444;-53
2021/08/23 03:23:07;;;;;;;18.90;10.03;;;;;;;;;;5099841;28;20437;-53
2021/08/23 03:25:34;;;;;;;10.60;8.17;;;;;;;;;;5098977;28;20440;-52
2021/08/23 03:28:12;;;;;;;11.63;10.17;;;;;;;;;;5099733;28;20456;-53
2021/08/23 03:30:40;;;;;;;13.70;9.10;;;;;;;;;;5097673;28;20550;-59
2021/08/23 03:33:07;;;;;;;9.80;8.77;;;;;;;;;;5099259;28;20437;-53
2021/08/23 03:35:35;;;;;;;13.90;9.40;;;;;;;;;;5099715;28;20453;-53
2021/08/23 03:38:02;;;;;;;15.77;9.63;;;;;;;;;;5098985;28;20486;-49
2021/08/23 03:40:30;;;;;;;11.10;9.07;;;;;;;;;;5099092;28;20456;-47
2021/08/23 03:43:02;;;;;;;11.50;9.50;;;;;;;;;;5098822;28;20463;-52
2021/08/23 03:45:29;;;;;;;12.60;9.80;;;;;;;;;;5098897;28;20527;-55
2021/08/23 03:47:58;;;;;;;13.80;10.43;;;;;;;;;;5099176;28;20463;-53
2021/08/23 03:50:27;;;;;;;12.30;10.23;;;;;;;;;;5098813;28;20471;-50
2021/08/23 03:52:54;;;;;;;15.37;11.03;;;;;;;;;;5098908;28;20440;-57
2021/08/23 03:55:35;;;;;;;12.10;10.90;;;;;;;;;;5099256;28;20440;-55
2021/08/23 03:58:07;;;;;;;14.53;11.30;;;;;;;;;;5099065;28;20475;-53
2021/08/23 04:00:36;;;;;;;12.50;10.40;;;;;;;;;;5098586;28;20452;-55
2021/08/23 04:03:21;;;;;;;14.23;10.70;;;;;;;;;;5085958;28;20476;-48
2021/08/23 04:05:48;;;;;;;14.30;11.10;;;;;;;;;;5092474;28;20442;-54
2021/08/23 04:08:16;;;;;;;13.53;11.80;;;;;;;;;;5100464;28;20464;-53
2021/08/23 04:10:58;;;;;;;13.30;11.90;;;;;;;;;;5096452;28;20467;-57
2021/08/23 04:13:25;;;;;;;14.60;12.30;;;;;;;;;;5090620;28;20484;-54
2021/08/23 04:15:54;;;;;;;17.87;12.30;;;;;;;;;;5098364;28;20470;-52
2021/08/23 04:18:23;;;;;;;15.47;11.70;;;;;;;;;;5098057;28;20515;-56
2021/08/23 04:20:50;;;;;;;15.67;11.17;;;;;;;;;;5097946;28;20448;-55
2021/08/23 04:23:31;;;;;;;12.27;10.47;;;;;;;;;;5098113;28;20452;-49
2021/08/23 04:25:58;;;;;;;24.43;12.90;;;;;;;;;;5098349;28;20444;-60
2021/08/23 04:28:25;;;;;;;15.10;12.43;;;;;;;;;;5098177;28;20448;-47
2021/08/23 04:31:08;;;;;;;13.40;11.70;;;;;;;;;;5097942;28;20460;-51
2021/08/23 04:33:36;;;;;;;15.07;12.10;;;;;;;;;;5095959;28;20538;-54
2021/08/23 04:36:04;;;;;;;17.33;12.80;;;;;;;;;;5098006;28;20436;-53
2021/08/23 04:38:31;;;;;;;21.00;14.30;;;;;;;;;;5097804;28;20480;-53
2021/08/23 04:40:58;;;;;;;16.63;13.00;;;;;;;;;;5097771;28;20495;-54
2021/08/23 04:43:52;;;;;;;12.77;10.53;;;;;;;;;;5097953;28;20429;-56
2021/08/23 04:46:19;;;;;;;15.07;12.30;;;;;;;;;;5078213;28;20449;-55
2021/08/23 04:48:53;;;;;;;12.80;11.23;;;;;;;;;;5097987;28;20464;-48
2021/08/23 04:51:21;;;;;;;12.97;11.60;;;;;;;;;;5097681;28;20462;-53
2021/08/23 04:53:49;;;;;;;16.23;12.10;;;;;;;;;;5097065;28;20486;-57
2021/08/23 04:56:32;;;;;;;18.43;13.20;;;;;;;;;;5096464;28;20448;-58
2021/08/23 04:58:59;;;;;;;13.53;11.80;;;;;;;;;;5096983;28;20466;-50
2021/08/23 05:01:40;;;;;;;13.77;11.03;;;;;;;;;;5097286;28;20459;-49
2021/08/23 05:04:13;;;;;;;13.47;10.80;;;;;;;;;;5094410;28;20472;-51
2021/08/23 05:06:40;;;;;;;15.47;11.07;;;;;;;;;;5097213;28;20458;-51
2021/08/23 05:09:19;;;;;;;15.60;12.03;;;;;;;;;;5097610;28;20486;-52
2021/08/23 05:11:47;;;;;;;19.37;12.20;;;;;;;;;;5116554;28;20446;-50
2021/08/23 05:14:17;;;;;;;14.90;12.23;;;;;;;;;;5118033;28;20451;-52
2021/08/23 05:16:45;;;;;;;15.57;12.93;;;;;;;;;;5076695;28;20441;-57
2021/08/23 05:19:13;;;;;;;15.10;12.47;;;;;;;;;;5095220;28;20448;-51
2021/08/23 05:21:42;;;;;;;17.87;12.70;;;;;;;;;;5096363;28;20674;-56
2021/08/23 05:24:09;;;;;;;21.13;14.00;;;;;;;;;;5096290;28;20448;-53
2021/08/23 05:26:38;;;;;;;19.50;13.10;;;;;;;;;;5096394;28;20459;-51
2021/08/23 05:29:11;;;;;;;21.93;14.37;;;;;;;;;;5096960;28;20495;-57
2021/08/23 05:37:49;;;;;;;14.60;12.03;;;;;;;;;;5093607;28;20702;-52
2021/08/23 05:40:17;;;;;;;15.80;13.20;;;;;;;;;;5095998;28;20452;-53
2021/08/23 05:42:47;;;;;;;17.10;13.60;;;;;;;;;;5097587;28;20452;-51
2021/08/23 05:45:14;;;;;;;19.50;13.70;;;;;;;;;;5097182;28;20492;-55
2021/08/23 05:47:45;;;;;;;18.53;14.43;;;;;;;;;;5095938;28;20528;-57
2021/08/23 05:50:15;;;;;;;18.40;15.03;;;;;;;;;;5095322;28;20439;-50
2021/08/23 05:52:42;;;;;;;15.93;12.80;;;;;;;;;;5094834;28;20487;-54
2021/08/23 05:55:46;;;;;;;16.20;13.23;;;;;;;;;;5105324;28;20476;-58
2021/08/23 05:58:16;;;;;;;15.57;12.60;;;;;;;;;;5116107;28;20494;-56
2021/08/23 06:00:44;;;;;;;17.33;12.73;;;;;;;;;;5075335;28;20457;-53
2021/08/23 06:03:14;;;;;;;14.93;12.87;;;;;;;;;;5091792;28;20444;-50
2021/08/23 06:05:49;;;;;;;18.73;14.60;;;;;;;;;;5096135;28;20463;-54
2021/08/23 06:08:19;;;;;;;19.93;12.50;;;;;;;;;;5096501;28;20432;-54
2021/08/23 06:10:47;;;;;;;24.00;14.10;;;;;;;;;;5100185;28;20517;-57
2021/08/23 06:13:41;;;;;;;18.07;14.90;;;;;;;;;;5087390;28;20448;-54
2021/08/23 06:16:19;;;;;;;18.70;15.53;;;;;;;;;;5076089;28;20452;-53
2021/08/23 06:18:47;;;;;;;19.53;17.27;;;;;;;;;;5098118;28;20482;-51
2021/08/23 06:21:16;;;;;;;24.30;19.00;;;;;;;;;;5115917;28;20451;-55
2021/08/23 06:23:56;;;;;;;22.23;16.13;;;;;;;;;;5120137;28;20447;-61
2021/08/23 06:26:24;;;;;;;17.57;15.50;;;;;;;;;;5103840;28;20468;-59
2021/08/23 06:28:53;;;;;;;17.73;15.10;;;;;;;;;;5100408;28;20452;-49
2021/08/23 06:31:26;;;;;;;24.57;17.03;;;;;;;;;;5099750;28;20497;-52
2021/08/23 06:33:53;;;;;;;20.43;16.33;;;;;;;;;;5099978;28;20486;-58
2021/08/23 06:36:28;;;;;;;17.83;15.37;;;;;;;;;;5099889;28;20478;-50
2021/08/23 06:38:57;;;;;;;17.77;14.83;;;;;;;;;;5079819;28;20475;-52
2021/08/23 06:41:25;;;;;;;20.10;15.80;;;;;;;;;;5079392;28;20453;-55
2021/08/23 06:43:57;;;;;;;21.20;16.40;;;;;;;;;;5079719;28;20437;-56
2021/08/23 06:46:24;;;;;;;19.93;16.77;;;;;;;;;;5078820;28;20444;-52
2021/08/23 06:48:52;;;;;;;16.93;14.70;;;;;;;;;;5079850;28;20453;-55
2021/08/23 06:51:25;;;;;;;20.97;15.07;;;;;;;;;;5079247;28;20440;-50
2021/08/23 06:53:53;;;;;;;17.03;13.00;;;;;;;;;;5079202;28;20457;-48
2021/08/23 06:56:21;;;;;;;14.00;12.57;;;;;;;;;;5079051;28;20519;-56
2021/08/23 06:58:49;;;;;;;20.07;15.53;;;;;;;;;;5093377;28;20480;-59
2021/08/23 07:01:18;;;;;;;14.47;13.07;;;;;;;;;;5098933;28;20444;-56
2021/08/23 07:03:48;;;;;;;16.27;13.60;;;;;;;;;;5096835;28;20475;-54
2021/08/23 07:06:20;;;;;;;16.60;13.90;;;;;;;;;;5099283;28;20466;-63
2021/08/23 07:08:48;;;;;;;17.20;14.80;;;;;;;;;;5081056;28;20474;-52
2021/08/23 07:11:15;;;;;;;18.97;15.60;;;;;;;;;;5098111;28;20431;-59
2021/08/23 07:13:46;;;;;;;18.07;14.37;;;;;;;;;;5098829;28;20452;-56
2021/08/23 07:16:15;;;;;;;23.73;16.33;;;;;;;;;;5098724;28;20459;-55
2021/08/23 07:18:46;;;;;;;16.53;13.90;;;;;;;;;;5098231;28;20499;-58
2021/08/23 07:21:14;;;;;;;18.13;16.10;;;;;;;;;;5098148;28;20448;-49
2021/08/23 07:23:41;;;;;;;20.53;16.80;;;;;;;;;;5098641;28;20444;-52
2021/08/23 07:26:15;;;;;;;20.10;17.13;;;;;;;;;;5098211;28;20514;-54
2021/08/23 07:28:44;;;;;;;21.80;17.20;;;;;;;;;;5090550;28;20464;-50
2021/08/23 07:31:32;;;;;;;19.63;17.47;;;;;;;;;;5098031;28;20450;-58
2021/08/23 07:34:36;;;;;;;21.50;17.70;;;;;;;;;;5099419;28;20441;-56
2021/08/23 07:37:13;;;;;;;23.70;19.73;;;;;;;;;;5099244;28;20511;-49
2021/08/23 07:39:41;;;;;;;20.07;17.03;;;;;;;;;;5098613;28;20507;-58
2021/08/23 07:42:09;;;;;;;21.50;16.67;;;;;;;;;;5097919;28;20428;-56
2021/08/23 07:44:45;;;;;;;18.57;16.33;;;;;;;;;;5098542;28;20463;-51
2021/08/23 07:47:13;;;;;;;20.57;17.13;;;;;;;;;;5097164;28;20449;-56
2021/08/23 07:49:40;;;;;;;19.57;16.77;;;;;;;;;;5097107;28;20451;-54
2021/08/23 07:52:09;;;;;;;20.40;15.47;;;;;;;;;;5097186;28;20456;-53
2021/08/23 07:54:37;;;;;;;21.40;18.57;;;;;;;;;;5097930;28;20433;-54
2021/08/23 07:57:26;;;;;;;22.57;19.13;;;;;;;;;;5096231;28;20447;-54
2021/08/23 07:59:55;;;;;;;20.93;18.17;;;;;;;;;;5057978;28;20480;-61
2021/08/23 08:02:24;;;;;;;25.03;19.33;;;;;;;;;;5077370;28;20479;-56
2021/08/23 08:05:10;;;;;;;28.07;21.13;;;;;;;;;;5077001;28;20480;-52
2021/08/23 08:07:39;;;;;;;23.43;20.10;;;;;;;;;;5090939;28;20496;-56
2021/08/23 08:10:21;;;;;;;24.03;20.50;;;;;;;;;;5097120;28;20442;-58
2021/08/23 08:12:52;;;;;;;26.77;20.43;;;;;;;;;;5096903;28;20486;-58
2021/08/23 08:15:40;;;;;;;23.77;20.93;;;;;;;;;;5095223;28;20488;-51
2021/08/23 08:18:21;;;;;;;25.10;19.73;;;;;;;;;;5097437;28;20474;-52
2021/08/23 08:20:49;;;;;;;23.10;19.40;;;;;;;;;;5098014;28;20456;-52
2021/08/23 08:23:33;;;;;;;24.10;19.07;;;;;;;;;;5097225;28;20456;-55
2021/08/23 08:26:01;;;;;;;22.07;17.40;;;;;;;;;;5097077;28;20464;-52
2021/08/23 08:28:36;;;;;;;26.83;20.90;;;;;;;;;;5097734;28;20486;-54
2021/08/23 08:31:05;;;;;;;23.77;20.63;;;;;;;;;;5097360;28;20448;-53
2021/08/23 08:33:34;;;;;;;26.73;18.80;;;;;;;;;;5096463;28;20433;-51
2021/08/23 08:36:04;;;;;;;20.80;17.70;;;;;;;;;;5097090;28;20528;-56
2021/08/23 08:38:33;;;;;;;19.63;17.53;;;;;;;;;;5096682;28;20747;-49
2021/08/23 08:41:01;;;;;;;20.73;17.97;;;;;;;;;;5096599;28;20444;-52
2021/08/23 08:43:29;;;;;;;17.93;14.80;;;;;;;;;;5097132;28;20440;-56
2021/08/23 08:46:01;;;;;;;23.47;17.57;;;;;;;;;;5096540;28;20762;-56
2021/08/23 08:48:31;;;;;;;22.17;17.20;;;;;;;;;;5096040;28;20448;-56
2021/08/23 08:51:00;;;;;;;20.50;17.20;;;;;;;;;;5096568;28;20478;-57
2021/08/23 08:53:28;;;;;;;18.53;15.50;;;;;;;;;;5097054;28;20470;-56
2021/08/23 08:56:19;;;;;;;24.27;16.80;;;;;;;;;;5096012;28;20502;-55
2021/08/23 08:58:48;;;;;;;19.70;15.93;;;;;;;;;;5094710;28;20519;-52
2021/08/23 09:01:19;;;;;;;24.33;18.57;;;;;;;;;;5096884;28;20490;-54
2021/08/23 09:03:50;;;;;;;21.40;18.17;;;;;;;;;;5096729;28;20460;-48
2021/08/23 09:06:20;;;;;;;21.80;18.10;;;;;;;;;;5096790;28;20471;-54
2021/08/23 09:09:07;;;;;;;21.87;16.83;;;;;;;;;;5096476;28;20524;-56
2021/08/23 09:12:06;;;;;;;19.87;16.73;;;;;;;;;;5095780;28;20471;-54
2021/08/23 09:14:52;;;;;;;20.77;15.03;;;;;;;;;;5096222;28;20522;-58
2021/08/23 09:17:22;;;;;;;20.80;17.20;;;;;;;;;;5095298;28;20444;-50
2021/08/23 09:20:08;;;;;;;20.83;16.93;;;;;;;;;;5095547;28;20594;-55
2021/08/23 09:23:10;;;;;;;22.83;18.00;;;;;;;;;;5095549;28;20439;-57
2021/08/23 09:25:37;;;;;;;24.43;18.80;;;;;;;;;;5095295;28;20451;-56
2021/08/23 09:28:06;;;;;;;23.07;17.60;;;;;;;;;;5096416;28;20456;-52
2021/08/23 09:30:37;;;;;;;21.13;16.70;;;;;;;;;;5096063;28;20490;-53
2021/08/23 09:33:08;;;;;;;20.10;16.90;;;;;;;;;;5095816;28;20444;-53
2021/08/23 09:35:36;;;;;;;19.13;15.37;;;;;;;;;;5096032;28;20436;-53
2021/08/23 09:38:17;;;;;;;21.40;13.77;;;;;;;;;;5095113;28;20506;-51
2021/08/23 09:40:44;;;;;;;15.20;12.90;;;;;;;;;;5095628;28;20440;-55
2021/08/23 09:43:16;;;;;;;17.43;15.03;;;;;;;;;;5094965;28;20448;-58
2021/08/23 09:45:49;;;;;;;22.07;15.90;;;;;;;;;;5096060;28;20504;-54
2021/08/23 09:48:22;;;;;;;14.33;12.63;;;;;;;;;;5094011;28;20506;-50
2021/08/23 09:50:50;;;;;;;12.50;11.00;;;;;;;;;;5095651;28;20463;-55
2021/08/23 09:53:23;;;;;;;13.40;11.33;;;;;;;;;;5095560;28;20440;-58
2021/08/23 09:56:09;;;;;;;17.13;13.33;;;;;;;;;;5079016;28;20444;-52
2021/08/23 09:58:46;;;;;;;14.50;12.80;;;;;;;;;;5095922;28;20479;-55
2021/08/23 10:01:14;;;;;;;15.87;13.50;;;;;;;;;;5095401;28;20436;-57
2021/08/23 10:03:52;;;;;;;16.50;13.40;;;;;;;;;;5095338;28;20459;-53
2021/08/23 10:06:19;;;;;;;14.93;13.30;;;;;;;;;;5095937;28;20451;-59
2021/08/23 10:08:47;;;;;;;18.90;13.37;;;;;;;;;;5103229;28;20464;-53
2021/08/23 10:11:30;;;;;;;19.73;15.50;;;;;;;;;;5095872;28;20459;-52
2021/08/23 10:13:57;;;;;;;20.10;16.77;;;;;;;;;;5093018;28;20506;-55
2021/08/23 10:16:25;;;;;;;20.57;18.30;;;;;;;;;;5095782;28;20546;-53
2021/08/23 10:18:56;;;;;;;21.10;18.40;;;;;;;;;;5094669;28;20506;-51
2021/08/23 10:21:23;;;;;;;26.50;18.77;;;;;;;;;;5095263;28;20452;-57
2021/08/23 10:24:04;;;;;;;28.83;21.60;;;;;;;;;;5095304;28;20416;-51
2021/08/23 10:26:39;;;;;;;22.60;19.50;;;;;;;;;;5094440;28;20507;-51
2021/08/23 10:29:08;;;;;;;23.20;20.43;;;;;;;;;;5094943;28;20408;-54
2021/08/23 10:31:36;;;;;;;22.17;19.43;;;;;;;;;;5094740;28;20433;-52
2021/08/23 10:34:20;;;;;;;20.10;18.00;;;;;;;;;;5094578;28;20464;-54
2021/08/23 10:40:00;;;;;;;20.40;18.30;;;;;;;;;;5093072;28;20491;-52
2021/08/23 10:42:36;;;;;;;19.10;17.10;;;;;;;;;;5095673;28;20485;-48
2021/08/23 10:45:23;;;;;;;17.97;15.50;;;;;;;;;;5094870;28;20471;-55
2021/08/23 10:47:51;;;;;;;21.57;16.90;;;;;;;;;;5092969;28;20570;-58
2021/08/23 10:50:25;;;;;;;21.10;17.27;;;;;;;;;;5093893;28;20444;-60
2021/08/23 10:55:37;;;;;;;16.03;14.33;;;;;;;;;;5096433;28;20735;-56
2021/08/23 10:58:06;;;;;;;16.90;14.30;;;;;;;;;;5098706;28;20520;-52
2021/08/23 11:00:53;;;;;;;17.67;15.20;;;;;;;;;;5098699;28;20417;-56
2021/08/23 11:03:29;;;;;;;17.57;15.47;;;;;;;;;;5098050;28;20447;-54
2021/08/23 11:06:12;;;;;;;17.67;15.77;;;;;;;;;;5079515;28;20444;-58
2021/08/23 11:09:04;;;;;;;17.53;14.90;;;;;;;;;;5093325;28;20500;-58
2021/08/23 11:11:39;;;;;;;16.50;14.80;;;;;;;;;;5077106;28;20459;-58
2021/08/23 11:14:16;;;;;;;16.70;14.87;;;;;;;;;;5078307;28;20474;-49
2021/08/23 11:17:13;;;;;;;15.87;14.27;;;;;;;;;;5077366;28;20499;-56
2021/08/23 11:19:42;;;;;;;16.60;14.27;;;;;;;;;;5091249;28;20529;-56
2021/08/23 11:22:24;;;;;;;15.73;14.13;;;;;;;;;;5084357;28;20516;-58
2021/08/23 11:28:25;;;;;;;14.57;12.97;;;;;;;;;;5092299;28;20458;-52
2021/08/23 11:33:52;;;;;;;16.03;14.33;;;;;;;;;;5078240;28;20492;-52
2021/08/23 11:36:24;;;;;;;13.33;12.00;;;;;;;;;;5096402;28;20447;-54
2021/08/23 11:38:53;;;;;;;12.30;11.10;;;;;;;;;;5077955;28;20473;-50
2021/08/23 11:41:23;;;;;;;12.53;11.23;;;;;;;;;;5094211;28;20452;-49
2021/08/23 11:44:14;;;;;;;12.00;10.80;;;;;;;;;;5081419;28;20484;-57
2021/08/23 11:47:01;;;;;;;15.00;11.20;;;;;;;;;;5097144;28;20449;-54
2021/08/23 11:49:36;;;;;;;13.10;10.90;;;;;;;;;;5097245;28;20444;-60
2021/08/23 11:52:11;;;;;;;16.07;12.90;;;;;;;;;;5096840;28;20558;-53
2021/08/23 11:54:51;;;;;;;12.67;11.37;;;;;;;;;;5097352;28;20511;-52
2021/08/23 11:57:19;;;;;;;13.90;12.50;;;;;;;;;;5096891;28;20444;-59
2021/08/23 11:59:53;;;;;;;14.87;13.37;;;;;;;;;;5098566;28;20538;-49
2021/08/23 12:05:16;;;;;;;12.47;11.27;;;;;;;;;;5097252;28;20452;-53
2021/08/23 12:08:01;;;;;;;11.93;10.73;;;;;;;;;;5098116;28;20444;-54
2021/08/23 12:10:30;;;;;;;12.77;11.47;;;;;;;;;;5089882;28;20452;-49
2021/08/23 12:13:11;;;;;;;15.77;11.50;;;;;;;;;;5098506;28;20443;-55
2021/08/23 12:15:50;;;;;;;12.60;11.33;;;;;;;;;;5101760;28;20443;-55
2021/08/23 12:21:13;;;;;;;13.33;11.50;;;;;;;;;;5103351;28;20463;-59
2021/08/23 12:23:51;;;;;;;15.33;11.03;;;;;;;;;;5116948;28;20450;-53
2021/08/23 12:26:24;;;;;;;12.73;10.80;;;;;;;;;;5097583;28;20435;-56
2021/08/23 12:28:53;;;;;;;12.23;10.83;;;;;;;;;;5094037;28;20462;-55
2021/08/23 12:31:29;;;;;;;14.90;13.40;;;;;;;;;;5096829;28;20489;-56
2021/08/23 12:33:58;;;;;;;10.57;8.63;;;;;;;;;;5073168;28;20649;-57
2021/08/23 12:36:27;;;;;;;12.90;10.27;;;;;;;;;;5097726;28;20439;-58
2021/08/23 12:39:08;;;;;;;12.47;11.17;;;;;;;;;;5096987;28;20490;-51
2021/08/23 12:41:39;;;;;;;11.67;9.63;;;;;;;;;;5095603;28;20484;-57
2021/08/23 12:44:07;;;;;;;13.53;10.63;;;;;;;;;;5097209;28;20498;-59
2021/08/23 12:46:52;;;;;;;16.00;14.30;;;;;;;;;;5097557;28;20464;-55
2021/08/23 12:49:25;;;;;;;17.37;11.40;;;;;;;;;;5095849;28;20478;-56
2021/08/23 12:51:53;;;;;;;13.20;10.80;;;;;;;;;;5090017;28;20437;-55
2021/08/23 12:54:29;;;;;;;13.13;11.83;;;;;;;;;;5079101;28;20448;-58
2021/08/23 12:56:58;;;;;;;16.20;14.60;;;;;;;;;;5076888;28;20464;-59
2021/08/23 12:59:27;;;;;;;14.60;13.20;;;;;;;;;;5082482;28;20480;-58
2021/08/23 13:02:17;;;;;;;18.13;14.63;;;;;;;;;;5097041;28;20479;-58
2021/08/23 13:04:45;;;;;;;12.13;10.70;;;;;;;;;;5085363;28;20465;-49
2021/08/23 13:07:12;;;;;;;10.67;9.57;;;;;;;;;;5076608;28;20491;-54
2021/08/23 13:09:40;;;;;;;11.70;10.50;;;;;;;;;;5088407;28;20455;-55
2021/08/23 13:12:16;;;;;;;21.83;13.07;;;;;;;;;;5094586;28;20461;-54
2021/08/23 13:15:07;;;;;;;12.43;10.63;;;;;;;;;;5100466;28;20518;-58
2021/08/23 13:17:35;;;;;;;11.63;9.80;;;;;;;;;;5115974;28;20870;-50
2021/08/23 13:20:17;;;;;;;13.87;11.00;;;;;;;;;;5116563;28;20473;-56
2021/08/23 13:22:51;;;;;;;11.03;9.83;;;;;;;;;;5090923;28;20507;-59
2021/08/23 13:25:19;;;;;;;11.50;10.40;;;;;;;;;;5077433;28;20527;-52
2021/08/23 13:27:58;;;;;;;15.47;11.93;;;;;;;;;;5074208;28;20491;-55
2021/08/23 13:33:29;;;;;;;14.03;12.57;;;;;;;;;;5094261;28;20469;-54
2021/08/23 13:35:58;;;;;;;12.70;11.40;;;;;;;;;;5083077;28;20455;-51
2021/08/23 13:41:30;;;;;;;10.70;9.60;;;;;;;;;;5094765;28;20471;-52
2021/08/23 13:44:15;;;;;;;13.53;10.87;;;;;;;;;;5096238;28;20447;-52
2021/08/23 13:47:01;;;;;;;13.77;12.27;;;;;;;;;;5095451;28;20468;-58
2021/08/23 13:49:30;;;;;;;15.80;14.10;;;;;;;;;;5092871;28;20492;-50
2021/08/23 13:51:58;;;;;;;21.03;17.43;;;;;;;;;;5104658;28;20436;-55
2021/08/23 13:54:34;;;;;;;14.70;13.40;;;;;;;;;;5114808;28;20458;-54
2021/08/23 13:57:02;;;;;;;16.67;15.03;;;;;;;;;;5092343;28;20589;-56
2021/08/23 13:59:31;;;;;;;17.77;15.93;;;;;;;;;;5095039;28;20483;-53
2021/08/23 14:02:23;;;;;;;19.20;17.23;;;;;;;;;;5095142;28;20432;-56
2021/08/23 14:04:57;;;;;;;17.03;15.23;;;;;;;;;;5081250;28;20500;-57
2021/08/23 14:07:56;;;;;;;17.47;15.67;;;;;;;;;;5094763;28;20484;-52
2021/08/23 14:10:27;;;;;;;15.27;13.70;;;;;;;;;;5093078;28;20515;-58
2021/08/23 14:13:14;;;;;;;15.67;14.13;;;;;;;;;;5095896;28;20444;-57
2021/08/23 14:22:13;;;;;;;13.53;12.23;;;;;;;;;;5087812;28;20452;-53
2021/08/23 14:27:54;;;;;;;13.90;10.87;;;;;;;;;;5064169;28;20498;-50
2021/08/23 14:30:24;;;;;;;12.67;10.57;;;;;;;;;;5078330;28;20433;-54
2021/08/23 14:32:51;;;;;;;11.97;10.30;;;;;;;;;;5086259;28;20444;-52
2021/08/23 14:35:18;;;;;;;12.90;10.67;;;;;;;;;;5099926;28;20463;-52
2021/08/23 14:37:47;;;;;;;12.13;10.83;;;;;;;;;;5100466;28;20428;-57
2021/08/23 14:40:15;;;;;;;13.87;11.63;;;;;;;;;;5094439;28;20609;-61
2021/08/23 14:42:43;;;;;;;12.43;11.23;;;;;;;;;;5090844;28;20468;-54
2021/08/23 14:45:11;;;;;;;12.17;10.97;;;;;;;;;;5096930;28;20442;-56
2021/08/23 14:47:40;;;;;;;12.37;11.03;;;;;;;;;;5096651;28;20444;-54
2021/08/23 14:50:22;;;;;;;14.50;12.17;;;;;;;;;;5081267;28;20437;-50
2021/08/23 14:52:51;;;;;;;13.07;11.70;;;;;;;;;;5078817;28;20463;-52
2021/08/23 14:55:20;;;;;;;14.37;12.80;;;;;;;;;;5078790;28;20447;-51
2021/08/23 14:58:06;;;;;;;12.10;10.60;;;;;;;;;;5078622;28;20465;-51
2021/08/23 15:00:33;;;;;;;12.37;10.50;;;;;;;;;;5092266;28;20495;-55
2021/08/23 15:03:10;;;;;;;14.83;11.13;;;;;;;;;;5098980;28;20439;-53
2021/08/23 15:05:53;;;;;;;13.10;10.97;;;;;;;;;;5098756;28;20463;-62
2021/08/23 15:08:22;;;;;;;12.80;11.20;;;;;;;;;;5090483;28;20488;-51
2021/08/23 15:10:53;;;;;;;11.90;10.43;;;;;;;;;;5098753;28;20452;-61
2021/08/23 15:13:38;;;;;;;12.60;10.57;;;;;;;;;;5098995;28;20486;-58
2021/08/23 15:16:06;;;;;;;13.43;11.50;;;;;;;;;;5094922;28;20444;-51
2021/08/23 15:18:37;;;;;;;12.43;10.13;;;;;;;;;;5096313;28;20452;-53
2021/08/23 15:21:36;;;;;;;11.27;9.90;;;;;;;;;;5098855;28;20484;-58
2021/08/23 15:24:56;;;;;;;10.90;9.60;;;;;;;;;;5099217;28;20484;-49
2021/08/23 15:27:58;;;;;;;12.30;10.53;;;;;;;;;;5092851;28;20436;-54
2021/08/23 15:30:54;;;;;;;12.57;10.93;;;;;;;;;;5096841;28;20479;-55
2021/08/23 15:36:39;;;;;;;12.40;11.00;;;;;;;;;;5083284;28;20436;-60
2021/08/23 15:39:08;;;;;;;19.07;15.30;;;;;;;;;;5096694;28;20463;-56
2021/08/23 15:44:40;;;;;;;13.90;11.57;;;;;;;;;;5085655;28;20480;-55